KOZR/OZR METAR and TAF weather

Enter ICAO airport designator
Station Type Date Time Source
KOZR METAR 2019/08/25 03:26 UTC NOAA

KOZR 250326Z AUTO 08011KT 10SM BKN045 26/23 A3001 RMK AO2 SLP162


Station Type Date Time Source
KOZR Decoded METAR 2019/08/25 03:26 UTC NOAA

Station name not available
Aug 24, 2019 - 11:26 PM EDT / 2019.08.25 0326 UTC
Wind: from the E (080 degrees) at 13 MPH (11 KT):0
Visibility: 10 mile(s):0
Sky conditions: mostly cloudy
Temperature: 78 F (26 C)
Dew Point: 73 F (23 C)
Relative Humidity: 83%
Pressure (altimeter): 30.01 in. Hg (1016 hPa)
ob: KOZR 250326Z AUTO 08011KT 10SM BKN045 26/23 A3001 RMK AO2 SLP162
cycle: 3

Station Type Date Time Source
KOZR TAF 2019/08/25 00:15 UTC NOAA

TAF KOZR 250000Z 2500/2606 VRB06KT 9999 FEW035 QNH2990INS
BECMG 2518/2519 11009KT 9000 -SHRA BKN030 QNH2987INS
BECMG 2605/2606 VRB06KT 8000 BR FEW015 QNH2994INS TX35/2522Z TN24/2505Z LAST NO
AMDS AFT 2500 NEXT 2610

Example: see airport list